Seiyu Maru — JD3189 — position and weather

sailwx.info

Track history (hours):
 
Tides and Currents Weather Stations Pressure Air Temp Water Temp Dewpoint Dewpoint Depression Visibility Wind Speed Wind Dir Waves Ship Positions

Seiyu Maru

Last reported at 2015-Feb-28 09:32 UTC. Time now 2015-Mar-04 02:57 UTC.
Position N 34°02' E 135°00'.

Length 75 m; draft 4.5 m.

Type: Cargo ship. MMSI: 431002433.

Date/timePositionNaut miles runAvg speedWind from/ knotsBaromVisibWave heightAir tempDewpointWater temp
2015-Feb-28 09:32N 34°02' E 135°00'1211.9
2015-Feb-28 08:33N 34°14' E 134°59'1110.6
2015-Feb-28 07:31N 34°24' E 135°03'1111.7
2015-Feb-28 06:32N 34°30' E 135°15'1010.3
2015-Feb-28 05:33N 34°36' E 135°25'2 0.5
2015-Feb-28 02:33N 34°35' E 135°27'0 0.0
2015-Feb-27 22:14N 34°35' E 135°27'0 0.0
2015-Feb-27 19:14N 34°35' E 135°27'0 0.0
2015-Feb-27 18:14N 34°35' E 135°27'0 0.0
2015-Feb-27 17:32N 34°35' E 135°27'0 0.0
2015-Feb-27 15:20N 34°35' E 135°27'0 0.0
2015-Feb-27 14:20N 34°35' E 135°27'0 0.0
2015-Feb-27 06:32N 34°35' E 135°27'0 0.0
2015-Feb-27 05:26N 34°35' E 135°27'0 0.0
2015-Feb-27 04:08N 34°35' E 135°27'0 0.0
2015-Feb-27 03:14N 34°35' E 135°27'0 0.0
2015-Feb-27 01:20N 34°35' E 135°27'0 0.0
2015-Feb-26 23:32N 34°35' E 135°27'0 0.0
2015-Feb-26 22:32N 34°35' E 135°27'1 0.0
2015-Feb-26 08:33N 34°35' E 135°28'9 8.8
2015-Feb-26 07:33N 34°36' E 135°17'6 5.9
2015-Feb-26 06:33N 34°40' E 135°12'1 1.0
2015-Feb-26 05:33N 34°41' E 135°12'0 0.0
2015-Feb-26 04:33N 34°41' E 135°12'0 0.0
2015-Feb-26 03:33N 34°41' E 135°12'0 0.0
2015-Feb-26 02:33N 34°41' E 135°12'1 1.4
2015-Feb-26 01:33N 34°39' E 135°11'1211.4
2015-Feb-26 00:32N 34°29' E 135°06'1211.4
2015-Feb-25 23:31N 34°18' E 134°60'1211.3
2015-Feb-25 22:29N 34°06' E 135°00'  
Track history (hours):
 
Tides and Currents Weather Stations Pressure Air Temp Water Temp Dewpoint Dewpoint Depression Visibility Wind Speed Wind Dir Waves Ship Positions

Seiyu Maru

Last reported at 2015-Feb-28 09:32 UTC. Time now 2015-Mar-04 02:57 UTC.
Position N 34°02' E 135°00'.

Length 75 m; draft 4.5 m.

Type: Cargo ship. MMSI: 431002433.

Date/timePositionNaut miles runAvg speedWind from/ knotsBaromVisibWave heightAir tempDewpointWater temp
2015-Feb-28 09:32N 34°02' E 135°00'1211.9
2015-Feb-28 08:33N 34°14' E 134°59'1110.6
2015-Feb-28 07:31N 34°24' E 135°03'1111.7
2015-Feb-28 06:32N 34°30' E 135°15'1010.3
2015-Feb-28 05:33N 34°36' E 135°25'2 0.5
2015-Feb-28 02:33N 34°35' E 135°27'0 0.0
2015-Feb-27 22:14N 34°35' E 135°27'0 0.0
2015-Feb-27 19:14N 34°35' E 135°27'0 0.0
2015-Feb-27 18:14N 34°35' E 135°27'0 0.0
2015-Feb-27 17:32N 34°35' E 135°27'0 0.0
2015-Feb-27 15:20N 34°35' E 135°27'0 0.0
2015-Feb-27 14:20N 34°35' E 135°27'0 0.0
2015-Feb-27 06:32N 34°35' E 135°27'0 0.0
2015-Feb-27 05:26N 34°35' E 135°27'0 0.0
2015-Feb-27 04:08N 34°35' E 135°27'0 0.0
2015-Feb-27 03:14N 34°35' E 135°27'0 0.0
2015-Feb-27 01:20N 34°35' E 135°27'0 0.0
2015-Feb-26 23:32N 34°35' E 135°27'0 0.0
2015-Feb-26 22:32N 34°35' E 135°27'1 0.0
2015-Feb-26 08:33N 34°35' E 135°28'9 8.8
2015-Feb-26 07:33N 34°36' E 135°17'6 5.9
2015-Feb-26 06:33N 34°40' E 135°12'1 1.0
2015-Feb-26 05:33N 34°41' E 135°12'0 0.0
2015-Feb-26 04:33N 34°41' E 135°12'0 0.0
2015-Feb-26 03:33N 34°41' E 135°12'0 0.0
2015-Feb-26 02:33N 34°41' E 135°12'1 1.4
2015-Feb-26 01:33N 34°39' E 135°11'1211.4
2015-Feb-26 00:32N 34°29' E 135°06'1211.4
2015-Feb-25 23:31N 34°18' E 134°60'1211.3
2015-Feb-25 22:29N 34°06' E 135°00'  

Dump ship's entire track history